createdAt,value
2022-12-22T00:02:38.076Z,98670.84
2022-12-22T00:05:41.110Z,98670.42
2022-12-22T00:08:26.854Z,98665.11
2022-12-22T00:11:12.711Z,98663.24
2022-12-22T00:14:02.727Z,98664.83
2022-12-22T00:16:53.549Z,98665.12
2022-12-22T00:19:39.557Z,98663.47
2022-12-22T00:22:33.608Z,98664.48
2022-12-22T00:25:19.493Z,98664.86
2022-12-22T00:28:05.480Z,98667.64
2022-12-22T00:30:51.410Z,98662.83
2022-12-22T00:33:37.739Z,98661.48
2022-12-22T00:36:24.770Z,98653.17
2022-12-22T00:39:10.681Z,98658.03
2022-12-22T00:41:56.364Z,98655.10
2022-12-22T00:44:42.287Z,98648.50
2022-12-22T00:47:33.163Z,98645.67
2022-12-22T00:50:18.957Z,98647.48
2022-12-22T00:53:04.942Z,98651.13
2022-12-22T00:55:50.860Z,98644.38
2022-12-22T00:58:37.942Z,98646.02
2022-12-22T01:01:24.131Z,98643.13
2022-12-22T01:04:10.132Z,98644.48
2022-12-22T01:06:56.732Z,98639.95
2022-12-22T01:09:42.726Z,98641.54
2022-12-22T01:12:33.868Z,98634.84
2022-12-22T01:15:19.719Z,98628.77
2022-12-22T01:18:05.824Z,98629.89
2022-12-22T01:20:51.919Z,98634.15
2022-12-22T01:23:38.416Z,98633.61
2022-12-22T01:26:27.924Z,98633.21
2022-12-22T01:29:13.982Z,98630.58
2022-12-22T01:32:00.485Z,98631.13
2022-12-22T01:34:46.297Z,98625.34
2022-12-22T01:37:32.110Z,98620.30
2022-12-22T01:40:17.860Z,98614.66
2022-12-22T01:43:03.989Z,98615.24
2022-12-22T01:45:51.409Z,98614.50
2022-12-22T01:48:42.375Z,98610.98
2022-12-22T01:51:40.097Z,98609.44
2022-12-22T01:54:25.940Z,98614.84
2022-12-22T01:57:11.914Z,98612.36
2022-12-22T01:59:57.910Z,98603.23
2022-12-22T02:02:44.622Z,98604.29
2022-12-22T02:05:31.525Z,98600.84
2022-12-22T02:08:20.483Z,98598.52
2022-12-22T02:11:32.590Z,98604.34
2022-12-22T02:14:26.153Z,98605.02
2022-12-22T02:17:15.762Z,98604.88
2022-12-22T02:20:23.330Z,98606.23
2022-12-22T02:23:26.434Z,98603.27
2022-12-22T02:26:15.975Z,98606.52
2022-12-22T02:29:02.373Z,98605.75
2022-12-22T02:31:54.327Z,98610.47
2022-12-22T02:34:40.115Z,98611.11
2022-12-22T02:37:35.626Z,98608.51
2022-12-22T02:40:46.850Z,98604.05
2022-12-22T02:43:38.951Z,98598.54
2022-12-22T02:46:48.965Z,98592.52
2022-12-22T02:49:40.161Z,98592.80
2022-12-22T02:52:33.132Z,98594.41
2022-12-22T02:55:18.962Z,98592.14
2022-12-22T02:58:05.036Z,98583.56
2022-12-22T03:00:50.942Z,98582.45
2022-12-22T03:03:37.172Z,98588.65
2022-12-22T03:06:23.130Z,98586.38
2022-12-22T03:09:08.987Z,98586.52
2022-12-22T03:11:54.709Z,98589.94
2022-12-22T03:14:40.587Z,98582.33
2022-12-22T03:17:26.337Z,98582.02
2022-12-22T03:20:12.295Z,98586.73
2022-12-22T03:22:58.155Z,98586.31
2022-12-22T03:25:44.250Z,98592.56
2022-12-22T03:28:11.704Z,98592.23
2022-12-22T03:30:38.830Z,98590.70
2022-12-22T03:33:05.842Z,98587.73
2022-12-22T03:35:32.863Z,98591.23
2022-12-22T03:38:03.544Z,98588.63
2022-12-22T03:40:31.466Z,98587.41
2022-12-22T03:43:17.233Z,98588.60
2022-12-22T03:46:03.155Z,98590.11
2022-12-22T03:48:30.141Z,98586.83
2022-12-22T03:50:57.329Z,98586.86
2022-12-22T03:53:24.334Z,98588.96
2022-12-22T03:55:51.295Z,98587.09
2022-12-22T03:58:18.416Z,98589.39
2022-12-22T04:00:45.547Z,98583.79
2022-12-22T04:03:13.342Z,98582.73
2022-12-22T04:05:40.556Z,98577.70
2022-12-22T04:08:07.558Z,98576.91
2022-12-22T04:10:53.347Z,98570.35
2022-12-22T04:13:20.439Z,98576.23
2022-12-22T04:15:47.650Z,98568.44
2022-12-22T04:18:14.681Z,98569.08
2022-12-22T04:20:41.774Z,98572.32
2022-12-22T04:23:08.891Z,98568.30
2022-12-22T04:25:35.906Z,98566.34
2022-12-22T04:28:02.994Z,98563.97
2022-12-22T04:30:30.043Z,98566.96
2022-12-22T04:32:57.930Z,98564.95
2022-12-22T04:35:24.939Z,98567.15
2022-12-22T04:37:52.006Z,98567.98
2022-12-22T04:40:19.168Z,98568.17
2022-12-22T04:42:46.343Z,98565.74
2022-12-22T04:45:13.629Z,98560.13
2022-12-22T04:47:40.615Z,98560.41
2022-12-22T04:50:08.626Z,98564.40
2022-12-22T04:52:35.614Z,98565.11
2022-12-22T04:55:02.618Z,98564.20
2022-12-22T04:57:29.605Z,98562.78
2022-12-22T04:59:56.614Z,98567.95
2022-12-22T05:02:23.664Z,98571.98
2022-12-22T05:04:50.698Z,98572.05
2022-12-22T05:07:17.679Z,98574.03
2022-12-22T05:09:44.662Z,98569.26
2022-12-22T05:12:30.396Z,98572.92
2022-12-22T05:14:57.446Z,98575.26
2022-12-22T05:17:24.387Z,98574.98
2022-12-22T05:19:51.322Z,98581.79
2022-12-22T05:22:18.386Z,98584.14
2022-12-22T05:24:45.431Z,98588.20
2022-12-22T05:27:12.570Z,98590.71
2022-12-22T05:29:39.576Z,98595.73
2022-12-22T05:32:06.599Z,98592.66
2022-12-22T05:34:33.589Z,98595.80
2022-12-22T05:37:00.603Z,98587.30
2022-12-22T05:39:27.554Z,98587.29
2022-12-22T05:41:54.563Z,98590.75
2022-12-22T05:44:21.583Z,98591.27
2022-12-22T05:46:51.949Z,98594.36
2022-12-22T05:49:19.529Z,98592.81
2022-12-22T05:51:46.612Z,98594.45
2022-12-22T05:54:13.753Z,98596.53
2022-12-22T05:56:40.780Z,98592.72
2022-12-22T05:59:07.815Z,98594.60
2022-12-22T06:01:34.859Z,98595.65
2022-12-22T06:04:02.150Z,98595.29
2022-12-22T06:06:29.990Z,98593.90
2022-12-22T06:08:56.989Z,98593.09
2022-12-22T06:11:24.077Z,98593.14
2022-12-22T06:13:50.991Z,98589.10
2022-12-22T06:16:18.150Z,98588.25
2022-12-22T06:18:45.108Z,98588.95
2022-12-22T06:21:12.090Z,98588.14
2022-12-22T06:23:39.071Z,98591.08
2022-12-22T06:26:06.039Z,98593.86
2022-12-22T06:28:33.024Z,98597.55
2022-12-22T06:31:00.303Z,98599.31
2022-12-22T06:33:27.345Z,98604.00
2022-12-22T06:35:58.896Z,98607.95
2022-12-22T06:38:27.837Z,98612.45
2022-12-22T06:40:55.146Z,98617.36
2022-12-22T06:43:22.158Z,98620.77
2022-12-22T06:45:49.195Z,98628.30
2022-12-22T06:48:16.242Z,98634.14
2022-12-22T06:50:43.311Z,98638.31
2022-12-22T06:53:10.438Z,98640.30
2022-12-22T06:55:37.571Z,98644.16
2022-12-22T06:58:05.342Z,98642.72
2022-12-22T07:00:32.390Z,98638.30
2022-12-22T07:02:59.555Z,98632.73
2022-12-22T07:05:26.782Z,98637.95
2022-12-22T07:07:53.929Z,98644.79
2022-12-22T07:10:40.981Z,98644.16
2022-12-22T07:13:19.434Z,98638.91
2022-12-22T07:15:48.933Z,98638.94
2022-12-22T07:18:19.550Z,98640.63
2022-12-22T07:20:46.588Z,98644.59
2022-12-22T07:23:13.595Z,98648.91
2022-12-22T07:25:40.575Z,98643.66
2022-12-22T07:28:07.699Z,98645.53
2022-12-22T07:30:36.530Z,98638.97
2022-12-22T07:33:04.075Z,98640.11
2022-12-22T07:35:31.157Z,98636.33
2022-12-22T07:37:58.117Z,98637.77
2022-12-22T07:40:25.095Z,98635.59
2022-12-22T07:42:56.905Z,98641.30
2022-12-22T07:45:24.008Z,98642.21
2022-12-22T07:47:51.081Z,98643.06
2022-12-22T07:50:26.007Z,98646.49
2022-12-22T07:52:56.439Z,98649.71
2022-12-22T07:55:27.805Z,98647.61
2022-12-22T07:57:55.086Z,98646.42
2022-12-22T08:00:22.992Z,98650.63
2022-12-22T08:02:54.599Z,98647.88
2022-12-22T08:05:22.174Z,98647.89
2022-12-22T08:07:49.778Z,98646.98
2022-12-22T08:10:17.308Z,98651.56
2022-12-22T08:12:44.340Z,98649.48
2022-12-22T08:15:11.912Z,98648.92
2022-12-22T08:17:39.031Z,98647.39
2022-12-22T08:20:06.728Z,98645.59
2022-12-22T08:22:34.089Z,98653.71
2022-12-22T08:25:01.081Z,98655.73
2022-12-22T08:27:39.978Z,98660.88
2022-12-22T08:30:08.801Z,98656.27
2022-12-22T08:32:36.530Z,98658.95
2022-12-22T08:35:04.670Z,98652.67
2022-12-22T08:37:33.825Z,98648.34
2022-12-22T08:40:03.529Z,98642.94
2022-12-22T08:42:30.561Z,98644.08
2022-12-22T08:44:57.557Z,98649.61
2022-12-22T08:47:24.657Z,98650.92
2022-12-22T08:49:51.727Z,98649.73
2022-12-22T08:52:19.467Z,98647.89
2022-12-22T08:54:46.833Z,98647.73
2022-12-22T08:57:13.875Z,98648.80
2022-12-22T08:59:40.932Z,98641.05
2022-12-22T09:02:08.099Z,98638.41
2022-12-22T09:04:35.543Z,98637.02
2022-12-22T09:07:02.810Z,98634.46
2022-12-22T09:09:33.444Z,98631.55
2022-12-22T09:12:01.405Z,98624.54
2022-12-22T09:14:29.057Z,98624.17
2022-12-22T09:16:56.566Z,98626.67
2022-12-22T09:19:23.660Z,98624.64
2022-12-22T09:21:50.723Z,98625.42
2022-12-22T09:24:17.912Z,98624.85
2022-12-22T09:26:45.045Z,98626.86
2022-12-22T09:29:15.952Z,98626.41
2022-12-22T09:31:43.517Z,98624.02
2022-12-22T09:34:16.859Z,98621.20
2022-12-22T09:36:45.198Z,98616.03
2022-12-22T09:39:12.212Z,98614.48
2022-12-22T09:41:50.935Z,98618.89
2022-12-22T09:44:28.249Z,98615.36
2022-12-22T09:46:56.509Z,98608.48
2022-12-22T09:49:23.862Z,98605.09
2022-12-22T09:51:59.075Z,98610.70
2022-12-22T09:54:26.279Z,98603.58
2022-12-22T09:56:53.420Z,98599.33
2022-12-22T09:59:21.292Z,98602.91
2022-12-22T10:02:25.967Z,98598.30
2022-12-22T10:04:56.215Z,98595.57
2022-12-22T10:07:36.329Z,98594.79
2022-12-22T10:10:32.975Z,98592.35
2022-12-22T10:13:01.897Z,98591.92
2022-12-22T10:15:36.535Z,98591.39
2022-12-22T10:18:15.600Z,98586.86
2022-12-22T10:20:43.637Z,98580.08
2022-12-22T10:23:15.568Z,98577.88
2022-12-22T10:26:26.964Z,98570.73
2022-12-22T10:28:51.172Z,98566.17
2022-12-22T10:31:23.056Z,98566.68
2022-12-22T10:33:51.911Z,98563.93
2022-12-22T10:36:30.871Z,98553.66
2022-12-22T10:39:05.367Z,98548.00
2022-12-22T10:41:46.109Z,98543.38
2022-12-22T10:44:17.314Z,98543.14
2022-12-22T10:47:06.268Z,98543.40
2022-12-22T10:52:29.663Z,98537.94
2022-12-22T10:55:21.126Z,98537.63
2022-12-22T10:57:49.259Z,98533.50
2022-12-22T11:00:37.314Z,98526.59
2022-12-22T11:03:05.909Z,98529.36
2022-12-22T11:05:33.425Z,98525.20
2022-12-22T11:08:02.445Z,98520.26
2022-12-22T11:10:33.670Z,98524.80
2022-12-22T11:13:10.421Z,98524.66
2022-12-22T11:15:43.302Z,98528.59
2022-12-22T11:18:58.681Z,98526.96
2022-12-22T11:21:38.959Z,98529.34
2022-12-22T11:24:25.885Z,98527.77
2022-12-22T11:27:45.585Z,98527.85
2022-12-22T11:30:24.823Z,98527.58
2022-12-22T11:33:28.385Z,98522.52
2022-12-22T11:36:10.344Z,98525.44
2022-12-22T11:39:09.379Z,98524.64
2022-12-22T11:41:51.300Z,98521.36
2022-12-22T11:45:14.872Z,98513.42
2022-12-22T11:48:24.382Z,98508.67
2022-12-22T11:51:10.923Z,98509.09
2022-12-22T11:54:31.738Z,98502.74
2022-12-22T11:57:07.863Z,98499.73
2022-12-22T11:59:42.804Z,98500.90
2022-12-22T12:02:54.445Z,98502.54
2022-12-22T12:06:05.419Z,98500.46
2022-12-22T12:08:59.109Z,98500.01
2022-12-22T12:11:35.705Z,98500.27
2022-12-22T12:14:36.701Z,98499.22
2022-12-22T12:17:43.160Z,98500.29
2022-12-22T12:20:52.249Z,98498.10
2022-12-22T12:23:49.644Z,98503.02
2022-12-22T12:26:24.478Z,98502.16
2022-12-22T12:36:40.317Z,98501.38
2022-12-22T12:39:13.398Z,98503.61
2022-12-22T12:42:08.334Z,98504.63
2022-12-22T12:44:36.406Z,98501.60
2022-12-22T12:47:07.744Z,98503.79
2022-12-22T12:49:34.931Z,98499.99
2022-12-22T12:52:09.399Z,98499.91
2022-12-22T12:54:40.815Z,98494.53
2022-12-22T12:57:07.843Z,98493.78
2022-12-22T12:59:41.215Z,98495.27
2022-12-22T13:02:27.209Z,98504.48
2022-12-22T13:05:11.638Z,98499.52
2022-12-22T13:08:17.429Z,98496.59
2022-12-22T13:10:48.768Z,98497.23
2022-12-22T13:13:22.073Z,98496.38
2022-12-22T13:16:04.769Z,98493.75
2022-12-22T13:18:35.300Z,98489.60
2022-12-22T13:21:42.486Z,98485.84
2022-12-22T13:24:23.339Z,98490.86
2022-12-22T13:26:45.812Z,98492.78
2022-12-22T13:29:35.933Z,98488.63
2022-12-22T13:32:13.928Z,98484.55
2022-12-22T13:35:04.886Z,98489.15
2022-12-22T13:37:31.526Z,98487.39
2022-12-22T13:40:15.508Z,98489.04
2022-12-22T13:42:43.685Z,98495.86
2022-12-22T13:45:33.745Z,98491.56
2022-12-22T13:48:01.714Z,98493.61
2022-12-22T13:50:39.406Z,98492.73
2022-12-22T13:53:08.562Z,98492.05
2022-12-22T13:55:37.101Z,98500.67
2022-12-22T13:58:24.769Z,98503.83
2022-12-22T14:01:22.953Z,98501.16
2022-12-22T14:04:00.835Z,98501.78
2022-12-22T14:07:48.743Z,98499.13
2022-12-22T14:10:15.987Z,98496.69
2022-12-22T14:12:45.134Z,98495.30
2022-12-22T14:15:17.135Z,98496.23
2022-12-22T14:17:52.041Z,98497.82
2022-12-22T14:20:25.383Z,98495.48
2022-12-22T14:22:58.701Z,98496.73
2022-12-22T14:25:29.915Z,98497.86
2022-12-22T14:27:57.168Z,98498.14
2022-12-22T14:30:26.700Z,98501.61
2022-12-22T14:32:57.816Z,98500.65
2022-12-22T14:35:27.804Z,98495.68
2022-12-22T14:38:15.879Z,98497.39
2022-12-22T14:40:44.120Z,98501.36
2022-12-22T14:43:20.464Z,98499.04
2022-12-22T14:45:48.807Z,98501.84
2022-12-22T14:48:24.128Z,98499.80
2022-12-22T14:50:52.094Z,98500.83
2022-12-22T14:53:24.619Z,98498.83
2022-12-22T14:55:51.653Z,98497.85
2022-12-22T14:58:21.347Z,98496.81
2022-12-22T15:00:49.663Z,98494.65
2022-12-22T15:03:37.348Z,98491.81
2022-12-22T15:06:25.077Z,98491.45
2022-12-22T15:08:53.670Z,98495.79
2022-12-22T15:11:22.507Z,98497.05
2022-12-22T15:13:50.055Z,98498.52
2022-12-22T15:16:20.841Z,98496.73
2022-12-22T15:18:48.186Z,98497.99
2022-12-22T15:21:16.104Z,98500.13
2022-12-22T15:23:43.745Z,98505.79
2022-12-22T15:26:11.956Z,98501.92
2022-12-22T15:28:39.157Z,98500.68
2022-12-22T15:31:12.212Z,98506.13
2022-12-22T15:33:39.382Z,98503.59
2022-12-22T15:36:06.907Z,98502.44
2022-12-22T15:38:38.719Z,98502.58
2022-12-22T15:41:07.041Z,98500.86
2022-12-22T15:46:22.536Z,98496.52
2022-12-22T15:48:50.050Z,98499.48
2022-12-22T15:51:23.665Z,98495.48
2022-12-22T15:53:50.935Z,98495.77
2022-12-22T15:56:22.352Z,98493.50
2022-12-22T15:58:49.588Z,98490.56
2022-12-22T16:01:16.706Z,98486.95
2022-12-22T16:03:44.212Z,98494.17
2022-12-22T16:06:16.030Z,98496.31
2022-12-22T16:08:51.043Z,98491.05
2022-12-22T16:11:18.229Z,98489.34
2022-12-22T16:13:45.431Z,98486.13
2022-12-22T16:16:12.611Z,98485.02
2022-12-22T16:18:40.100Z,98485.15
2022-12-22T16:21:29.999Z,98487.39
2022-12-22T16:24:00.600Z,98492.30
2022-12-22T16:26:27.789Z,98494.90
2022-12-22T16:28:55.316Z,98489.14
2022-12-22T16:31:23.452Z,98487.30
2022-12-22T16:33:50.800Z,98485.42
2022-12-22T16:36:18.014Z,98493.31
2022-12-22T16:38:46.065Z,98493.09
2022-12-22T16:41:19.285Z,98493.60
2022-12-22T16:43:49.069Z,98496.95
2022-12-22T16:46:17.917Z,98503.41
2022-12-22T16:48:55.992Z,98503.98
2022-12-22T16:51:26.510Z,98499.50
2022-12-22T16:53:53.838Z,98492.89
2022-12-22T16:56:29.124Z,98492.07
2022-12-22T16:58:56.332Z,98489.38
2022-12-22T17:01:48.780Z,98485.48
2022-12-22T17:04:30.866Z,98484.55
2022-12-22T17:06:59.683Z,98482.87
2022-12-22T17:09:31.416Z,98480.91
2022-12-22T17:11:59.302Z,98479.92
2022-12-22T17:14:34.730Z,98481.35
2022-12-22T17:17:01.891Z,98481.78
2022-12-22T17:19:28.895Z,98476.03
2022-12-22T17:21:56.601Z,98475.18
2022-12-22T17:24:28.516Z,98475.45
2022-12-22T17:26:58.771Z,98474.11
2022-12-22T17:29:25.922Z,98470.45
2022-12-22T17:31:56.826Z,98467.33
2022-12-22T17:34:24.378Z,98471.12
2022-12-22T17:36:57.027Z,98469.34
2022-12-22T17:39:24.027Z,98463.31
2022-12-22T17:41:56.702Z,98462.67
2022-12-22T17:44:25.337Z,98460.59
2022-12-22T17:46:52.641Z,98457.02
2022-12-22T17:49:22.675Z,98452.01
2022-12-22T17:51:50.146Z,98451.62
2022-12-22T17:54:25.389Z,98454.53
2022-12-22T17:56:54.818Z,98450.77
2022-12-22T17:59:21.882Z,98449.25
2022-12-22T18:01:49.229Z,98448.16
2022-12-22T18:04:16.639Z,98447.13
2022-12-22T18:06:43.893Z,98443.72
2022-12-22T18:09:18.967Z,98440.66
2022-12-22T18:11:46.381Z,98439.61
2022-12-22T18:14:13.928Z,98441.88
2022-12-22T18:16:41.012Z,98436.61
2022-12-22T18:19:08.331Z,98436.75
2022-12-22T18:21:36.199Z,98439.39
2022-12-22T18:24:03.427Z,98439.73
2022-12-22T18:26:31.453Z,98439.71
2022-12-22T18:28:58.921Z,98441.76
2022-12-22T18:31:26.236Z,98442.89
2022-12-22T18:33:53.801Z,98434.35
2022-12-22T18:36:28.776Z,98430.65
2022-12-22T18:38:55.983Z,98429.48
2022-12-22T18:41:24.060Z,98424.76
2022-12-22T18:43:51.704Z,98427.30
2022-12-22T18:46:19.713Z,98426.11
2022-12-22T18:49:09.667Z,98426.30
2022-12-22T18:51:36.815Z,98424.13
2022-12-22T18:54:03.959Z,98419.54
2022-12-22T18:56:31.210Z,98417.70
2022-12-22T18:58:58.365Z,98419.00
2022-12-22T19:01:26.507Z,98422.27
2022-12-22T19:03:55.905Z,98424.90
2022-12-22T19:06:23.265Z,98426.89
2022-12-22T19:08:50.647Z,98427.27
2022-12-22T19:11:21.616Z,98426.73
2022-12-22T19:13:49.704Z,98423.23
2022-12-22T19:16:18.785Z,98419.54
2022-12-22T19:18:46.212Z,98419.21
2022-12-22T19:21:14.223Z,98417.41
2022-12-22T19:23:41.639Z,98417.91
2022-12-22T19:26:21.800Z,98413.66
2022-12-22T19:28:50.829Z,98415.08
2022-12-22T19:31:23.174Z,98409.29
2022-12-22T19:33:50.414Z,98408.02
2022-12-22T19:36:28.085Z,98409.31
2022-12-22T19:39:03.409Z,98410.67
2022-12-22T19:41:53.412Z,98409.92
2022-12-22T19:44:25.857Z,98413.04
2022-12-22T19:46:53.800Z,98408.44
2022-12-22T19:49:23.182Z,98411.85
2022-12-22T19:51:50.487Z,98404.67
2022-12-22T19:54:18.088Z,98403.81
2022-12-22T19:56:50.846Z,98406.52
2022-12-22T19:59:29.495Z,98400.04
2022-12-22T20:02:00.005Z,98406.02
2022-12-22T20:04:27.260Z,98402.89
2022-12-22T20:06:54.289Z,98401.55
2022-12-22T20:09:21.371Z,98400.08
2022-12-22T20:11:48.397Z,98398.52
2022-12-22T20:14:18.579Z,98398.82
2022-12-22T20:16:45.932Z,98399.87
2022-12-22T20:19:14.360Z,98398.30
2022-12-22T20:21:41.618Z,98396.46
2022-12-22T20:24:13.368Z,98392.83
2022-12-22T20:26:40.408Z,98393.88
2022-12-22T20:29:10.973Z,98390.02
2022-12-22T20:31:38.199Z,98389.51
2022-12-22T20:34:06.946Z,98384.48
2022-12-22T20:36:33.982Z,98386.92
2022-12-22T20:39:02.315Z,98384.59
2022-12-22T20:41:29.331Z,98383.14
2022-12-22T20:43:56.505Z,98385.48
2022-12-22T20:46:25.743Z,98379.48
2022-12-22T20:48:56.442Z,98374.66
2022-12-22T20:51:24.712Z,98369.06
2022-12-22T20:53:52.133Z,98368.42
2022-12-22T20:56:28.507Z,98360.97
2022-12-22T20:58:56.033Z,98365.08
2022-12-22T21:01:23.907Z,98361.05
2022-12-22T21:03:51.248Z,98356.90
2022-12-22T21:06:30.209Z,98354.63
2022-12-22T21:08:58.408Z,98353.04
2022-12-22T21:11:25.825Z,98353.07
2022-12-22T21:13:53.039Z,98354.16
2022-12-22T21:16:23.186Z,98351.48
2022-12-22T21:18:50.841Z,98345.38
2022-12-22T21:21:17.949Z,98347.98
2022-12-22T21:23:45.025Z,98353.48
2022-12-22T21:26:18.835Z,98355.10
2022-12-22T21:28:45.845Z,98351.70
2022-12-22T21:31:12.868Z,98353.41
2022-12-22T21:33:40.147Z,98350.30
2022-12-22T21:36:14.177Z,98343.17
2022-12-22T21:38:41.252Z,98337.48
2022-12-22T21:41:08.278Z,98331.95
2022-12-22T21:43:35.259Z,98329.19
2022-12-22T21:46:02.347Z,98319.21
2022-12-22T21:48:29.476Z,98315.70
2022-12-22T21:50:56.481Z,98317.09
2022-12-22T21:53:23.415Z,98321.99
2022-12-22T21:55:50.491Z,98326.92
2022-12-22T21:58:17.816Z,98326.27
2022-12-22T22:00:47.501Z,98328.41
2022-12-22T22:03:15.173Z,98327.36
2022-12-22T22:05:43.138Z,98332.03
2022-12-22T22:08:11.457Z,98323.33
2022-12-22T22:10:40.676Z,98318.17
2022-12-22T22:13:08.357Z,98317.70
2022-12-22T22:15:35.735Z,98313.32
2022-12-22T22:18:07.208Z,98307.34
2022-12-22T22:20:34.955Z,98304.74
2022-12-22T22:23:02.485Z,98304.16
2022-12-22T22:25:29.539Z,98300.89
2022-12-22T22:27:59.622Z,98296.29
2022-12-22T22:30:26.950Z,98294.50
2022-12-22T22:32:55.391Z,98283.71
2022-12-22T22:35:23.479Z,98279.90
2022-12-22T22:37:51.586Z,98283.11
2022-12-22T22:40:20.814Z,98285.85
2022-12-22T22:42:48.124Z,98276.98
2022-12-22T22:45:16.582Z,98266.33
2022-12-22T22:47:43.656Z,98258.77
2022-12-22T22:50:10.861Z,98261.77
2022-12-22T22:52:37.898Z,98258.77
2022-12-22T22:55:05.613Z,98255.12
2022-12-22T22:57:32.720Z,98258.09
2022-12-22T22:59:59.659Z,98258.64
2022-12-22T23:02:26.760Z,98259.40
2022-12-22T23:04:54.067Z,98262.55
2022-12-22T23:07:21.197Z,98261.53
2022-12-22T23:09:48.265Z,98256.66
2022-12-22T23:12:15.336Z,98263.92
2022-12-22T23:14:42.358Z,98261.37
2022-12-22T23:17:09.299Z,98263.02
2022-12-22T23:19:36.267Z,98268.29
2022-12-22T23:22:03.613Z,98273.02
2022-12-22T23:24:31.537Z,98280.73
2022-12-22T23:26:58.624Z,98278.08
2022-12-22T23:29:25.630Z,98271.94
2022-12-22T23:31:52.732Z,98269.93
2022-12-22T23:34:19.944Z,98262.00
2022-12-22T23:36:46.939Z,98263.98
2022-12-22T23:39:14.464Z,98266.20
2022-12-22T23:41:41.655Z,98267.39
2022-12-22T23:44:08.678Z,98263.54
2022-12-22T23:46:35.876Z,98266.33
2022-12-22T23:49:02.923Z,98254.42
2022-12-22T23:51:30.030Z,98248.10
2022-12-22T23:53:58.338Z,98253.65
2022-12-22T23:56:25.674Z,98248.81
2022-12-22T23:58:55.098Z,98251.63
